• Join FlightAware (Why Join?)
  • Login
  • US Flag 
12:22PM EDT


 

Airport Tracker/Info


-or-


 

Live Flight TrackerFlight Track Log ✈ EGF4174 ✈ 30-04-2013 ✈ KSYR - KORD

Flight Track Log - Related Links

Times and Time Zones

All times are in EDT time to prevent confusion due to time zone crossing. See the EGF4174 flight status page for this flight to view local times or setup timezone preferences in your user account.

Time Position Orientation Groundspeed Altitude Reporting Facility
EDT Latitude Longitude Course Direction KTS MPH feet Rate Location/Type
04:42PM 43.1075 -76.1347 286° West 161 185 1,100  Level Boston Center
04:43PM 43.1100 -76.1833 274° West 180 207 2,900 2,400 Climbing Boston Center
04:45PM 43.1966 -76.4466 324° Northwest  Level FlightAware Approximate
04:45PM 43.1058 -76.3428 268° West 254 292 7,000  Level Cleveland Center
04:46PM 43.2102 -76.5712 281° West  Level FlightAware Approximate
04:46PM 43.1053 -76.4425 270° West 254 292 9,500  Level Cleveland Center
04:47PM 43.2336 -76.6953 286° West  Level FlightAware Approximate
04:47PM 43.1031 -76.5592 269° West 278 320 11,200  Level Cleveland Center
04:48PM 43.2599 -76.8185 286° West  Level FlightAware Approximate
04:48PM 43.1011 -76.6875 269° West 316 364 12,700  Level Cleveland Center
04:49PM 43.0947 -76.8100 266° West 343 395 14,400 1,560 Climbing Cleveland Center
04:50PM 43.0969 -76.9436 271° West 356 410 15,900 1,620 Climbing Cleveland Center
04:51PM 43.0969 -77.0803 270° West 356 410 17,700 1,440 Climbing Cleveland Center
04:52PM 43.0992 -77.2194 271° West 368 423 18,800 1,200 Climbing Cleveland Center
04:53PM 43.0989 -77.3617 270° West 373 429 20,100 1,200 Climbing Cleveland Center
04:54PM 43.1031 -77.5064 272° West 379 436 21,300 1,440 Climbing Cleveland Center
04:55PM 43.1028 -77.6600 270° West 391 450 23,000 1,560 Climbing Cleveland Center
04:56PM 43.1022 -77.8050 270° West 391 450 24,500 1,620 Climbing Cleveland Center
04:57PM 43.1036 -77.9558 271° West 391 450 26,300 1,800 Climbing Cleveland Center
04:58PM 43.1047 -78.0978 271° West 391 450 28,100 1,740 Climbing Cleveland Center
04:59PM 43.1056 -78.2372 271° West 379 436 29,800 1,680 Climbing Cleveland Center
05:00PM 43.1039 -78.3739 269° West 373 429 31,500 2,040 Climbing Cleveland Center
05:01PM 43.1047 -78.5272 270° West 373 429 33,900 1,680 Climbing Cleveland Center
05:02PM 43.1050 -78.6639 270° West 363 418 34,900 960 Climbing Cleveland Center
05:03PM 43.1031 -78.8033 269° West 363 418 35,900 540 Climbing Cleveland Center
05:04PM 43.1031 -78.9539 270° West 374 430 36,000 60 Climbing Cleveland Center
05:04PM 43.1000 -78.9667 252° West 390 449 36,000  Level Toronto Center
05:05PM 43.0833 -79.1333 262° West 410 472 36,000  Level Toronto Center
05:06PM 43.0833 -79.2833 270° West 410 472 36,000  Level Toronto Center
05:07PM 43.0833 -79.4333 270° West 400 460 36,000  Level Toronto Center
05:08PM 43.0833 -79.5667 270° West 390 449 36,000  Level Toronto Center
05:09PM 43.0833 -79.7167 270° West 390 449 36,000  Level Toronto Center
05:10PM 43.0833 -79.8667 270° West 390 449 36,000  Level Toronto Center
05:11PM 43.0833 -80.0167 270° West 390 449 36,000  Level Toronto Center
05:12PM 43.0833 -80.1500 270° West 390 449 36,000  Level Toronto Center
05:13PM 43.0833 -80.3167 270° West 400 460 36,000  Level Toronto Center
05:14PM 43.0667 -80.4833 262° West 400 460 36,000  Level Toronto Center
05:15PM 43.0667 -80.6167 270° West 400 460 36,000  Level Toronto Center
05:16PM 43.0667 -80.7667 270° West 400 460 36,000 -300 Level Toronto Center
05:17PM 43.0500 -80.9333 262° West 400 460 35,400 -900 Descending Toronto Center
05:18PM 43.0500 -81.1000 270° West 410 472 34,300 -720 Descending Toronto Center
05:19PM 43.0500 -81.2333 270° West 410 472 34,000 -180 Descending Toronto Center
05:20PM 43.0500 -81.3833 270° West 410 472 34,000  Level Toronto Center
05:21PM 43.0333 -81.5500 262° West 410 472 34,000  Level Toronto Center
05:22PM 43.0333 -81.7167 270° West 420 483 34,000  Level Toronto Center
05:23PM 43.0333 -81.8667 270° West 420 483 34,000  Level Toronto Center
05:24PM 43.0167 -82.0333 262° West 420 483 34,000  Level Toronto Center
05:25PM 43.0167 -82.1833 270° West 420 483 34,000  Level Toronto Center
05:26PM 43.0167 -82.3500 270° West 410 472 34,000  Level Toronto Center
05:27PM 43.0167 -82.5000 270° West 410 472 34,000  Level Toronto Center
05:28PM 43.0000 -82.6500 261° West 410 472 34,000  Level Toronto Center
05:29PM 43.0086 -82.7608 276° West 421 484 34,000  Level Cleveland Center
05:30PM 43.0036 -82.9111 267° West 409 471 34,000  Level Cleveland Center
05:31PM 42.9964 -83.0586 266° West 397 457 34,000  Level Cleveland Center
05:32PM 42.9908 -83.2086 267° West 397 457 34,000  Level Cleveland Center
05:33PM 42.9831 -83.3644 266° West 403 464 34,000  Level Cleveland Center
05:34PM 42.9772 -83.5175 267° West 403 464 34,000 -420 Level Cleveland Center
05:35PM 42.9692 -83.6647 266° West 403 464 33,200 -900 Descending Cleveland Center
05:36PM 42.9586 -83.8203 265° West 403 464 32,200 -600 Descending Cleveland Center
05:37PM 42.9417 -83.9753 262° West 408 470 32,000 -120 Descending Cleveland Center
05:38PM 42.9289 -84.1278 264° West 408 470 32,000 -660 Level Cleveland Center
05:40PM 42.8833 -84.4833 260° West 410 472 30,000 -660 Descending Toronto Center
05:41PM 42.8667 -84.6167 260° West 410 472 30,000  Level Toronto Center
05:41PM 42.8747 -84.6711 281° West 408 470 30,000  Level Chicago Center
05:42PM 42.8581 -84.8250 262° West 411 473 30,000  Level Chicago Center
05:43PM 42.8431 -84.9761 262° West 404 465 30,000  Level Chicago Center
05:44PM 42.8264 -85.1297 262° West 409 471 30,000  Level Chicago Center
05:46PM 42.8094 -85.2856 262° West 415 478 30,000 -540 Level Chicago Center
05:47PM 42.7917 -85.4450 261° West 423 487 28,900 -1,560 Descending Chicago Center
05:48PM 42.7683 -85.6017 259° West 422 486 26,800 -2,220 Descending Chicago Center
05:49PM 42.7336 -85.7883 256° West 422 486 24,400 -2,220 Descending Chicago Center
05:50PM 42.7053 -85.9408 256° West 417 480 22,300 -2,040 Descending Chicago Center
05:51PM 42.6778 -86.0903 256° West 409 471 20,200 -1,140 Descending Chicago Center
05:52PM 42.6519 -86.2364 257° West 400 460 20,000 -120 Descending Chicago Center
05:53PM 42.6231 -86.3828 255° West 399 459 20,000 -780 Level Chicago Center
05:54PM 42.5964 -86.5308 256° West 403 464 18,400 -2,040 Descending Chicago Center
05:55PM 42.5697 -86.6672 255° West 377 434 15,800 -2,580 Descending Chicago Center
05:56PM 42.5356 -86.8225 253° West 362 417 13,100 -2,160 Descending Chicago Center
05:57PM 42.5022 -86.9375 249° West 339 390 11,400 -1,500 Descending Chicago Center
05:58PM 42.4725 -87.0500 250° West 319 367 10,000 -720 Descending Chicago Center
05:59PM 42.4394 -87.1625 248° West 322 371 10,000 -480 Level Chicago Center
06:00PM 42.4156 -87.2522 250° West 253 291 9,100 -540 Descending Chicago Center
06:01PM 42.3919 -87.3381 250° West 244 281 8,900 -1,020 Descending Chicago Center
06:02PM 42.3644 -87.4383 250° West 238 274 7,000 -960 Descending Chicago Center
06:03PM 42.3331 -87.5156 241° Southwest 236 272 7,000 -60 Level Chicago Center
06:04PM 42.2878 -87.5767 225° Southwest 241 277 6,900 -660 Descending Chicago Center
06:05PM 42.2364 -87.6328 219° Southwest 205 236 5,700 -960 Descending Chicago Center
06:06PM 42.2000 -87.6736 220° Southwest 175 201 5,000 -420 Descending Chicago Center
06:07PM 42.1678 -87.7081 218° Southwest 154 177 4,900 -480 Descending Chicago Center
06:08PM 42.1331 -87.7453 218° Southwest 158 182 4,100 -900 Descending Chicago Center
06:09PM 42.1000 -87.7667 206° Southwest 153 176 3,400 -960 Descending Chicago TRACON
06:10PM 42.0833 -87.8167 246° West 156 180 2,600 -900 Descending Chicago TRACON